createdAt,value
2023-03-15T00:01:46.894Z,98.69
2023-03-15T00:06:50.219Z,98.67
2023-03-15T00:11:56.683Z,98.86
2023-03-15T00:16:59.948Z,99.18
2023-03-15T00:22:03.432Z,99.61
2023-03-15T00:27:06.683Z,99.67
2023-03-15T00:32:10.272Z,99.93
2023-03-15T00:37:13.552Z,99.79
2023-03-15T00:42:16.954Z,99.93
2023-03-15T00:47:20.228Z,99.93
2023-03-15T00:52:23.610Z,99.96
2023-03-15T00:57:26.961Z,100.00
2023-03-15T01:02:30.331Z,100.00
2023-03-15T01:07:34.293Z,100.00
2023-03-15T01:12:37.665Z,100.00
2023-03-15T01:17:41.928Z,100.00
2023-03-15T01:22:45.018Z,100.00
2023-03-15T01:27:48.327Z,100.00
2023-03-15T01:32:51.664Z,100.00
2023-03-15T01:37:55.248Z,100.00
2023-03-15T01:43:04.389Z,100.00
2023-03-15T01:48:08.138Z,100.00
2023-03-15T01:53:12.404Z,100.00
2023-03-15T01:58:16.119Z,100.00
2023-03-15T02:03:26.125Z,100.00
2023-03-15T02:08:33.627Z,100.00
2023-03-15T02:13:37.020Z,100.00
2023-03-15T02:18:40.571Z,100.00
2023-03-15T02:23:48.604Z,100.00
2023-03-15T02:28:54.004Z,100.00
2023-03-15T02:33:57.290Z,100.00
2023-03-15T02:39:01.616Z,100.00
2023-03-15T02:44:07.518Z,100.00
2023-03-15T02:49:13.717Z,100.00
2023-03-15T02:54:17.215Z,100.00
2023-03-15T02:59:20.548Z,100.00
2023-03-15T03:04:23.813Z,100.00
2023-03-15T03:09:27.405Z,100.00
2023-03-15T03:14:31.445Z,100.00
2023-03-15T03:19:34.700Z,100.00
2023-03-15T03:24:37.948Z,100.00
2023-03-15T03:29:42.068Z,100.00
2023-03-15T03:34:48.614Z,100.00
2023-03-15T03:39:52.150Z,100.00
2023-03-15T03:44:55.503Z,100.00
2023-03-15T03:49:58.775Z,100.00
2023-03-15T03:55:02.117Z,100.00
2023-03-15T04:00:06.194Z,100.00
2023-03-15T04:05:11.444Z,100.00
2023-03-15T04:10:15.234Z,100.00
2023-03-15T04:15:18.539Z,100.00
2023-03-15T04:20:24.302Z,100.00
2023-03-15T04:25:27.924Z,100.00
2023-03-15T04:30:31.345Z,100.00
2023-03-15T04:35:36.489Z,100.00
2023-03-15T04:40:39.881Z,100.00
2023-03-15T04:45:43.285Z,100.00
2023-03-15T04:50:46.681Z,100.00
2023-03-15T04:55:50.430Z,100.00
2023-03-15T05:00:54.445Z,100.00
2023-03-15T05:05:57.854Z,100.00
2023-03-15T05:11:01.492Z,100.00
2023-03-15T05:16:05.496Z,100.00
2023-03-15T05:21:09.303Z,100.00
2023-03-15T05:26:13.513Z,100.00
2023-03-15T05:31:18.498Z,100.00
2023-03-15T05:36:22.453Z,100.00
2023-03-15T05:41:26.251Z,100.00
2023-03-15T05:46:30.459Z,100.00
2023-03-15T05:51:33.948Z,100.00
2023-03-15T05:56:37.362Z,100.00
2023-03-15T06:01:40.782Z,100.00
2023-03-15T06:06:44.792Z,100.00
2023-03-15T06:11:49.310Z,100.00
2023-03-15T06:16:56.125Z,100.00
2023-03-15T06:22:01.398Z,100.00
2023-03-15T06:27:06.462Z,100.00
2023-03-15T06:32:12.433Z,100.00
2023-03-15T06:37:28.831Z,100.00
2023-03-15T06:42:42.428Z,100.00
2023-03-15T06:47:48.416Z,100.00
2023-03-15T06:52:54.411Z,100.00
2023-03-15T06:58:00.412Z,100.00
2023-03-15T07:03:06.417Z,100.00
2023-03-15T07:21:08.439Z,100.00
2023-03-15T07:26:11.850Z,100.00
2023-03-15T07:31:15.675Z,100.00
2023-03-15T07:36:18.987Z,99.51
2023-03-15T07:41:22.517Z,99.32
2023-03-15T07:46:26.460Z,99.82
2023-03-15T07:51:29.947Z,99.71
2023-03-15T07:56:33.457Z,99.36
2023-03-15T08:01:36.932Z,99.43
2023-03-15T08:06:40.484Z,98.70
2023-03-15T08:11:44.699Z,98.58
2023-03-15T08:16:50.793Z,98.64
2023-03-15T08:21:54.201Z,97.30
2023-03-15T08:26:57.717Z,97.18
2023-03-15T08:32:01.235Z,96.68
2023-03-15T08:37:05.162Z,96.25
2023-03-15T08:42:08.884Z,95.99
2023-03-15T08:47:12.497Z,96.05
2023-03-15T08:52:18.027Z,95.59
2023-03-15T08:57:26.076Z,95.41
2023-03-15T09:02:29.636Z,94.38
2023-03-15T09:07:33.829Z,93.08
2023-03-15T09:12:37.365Z,92.17
2023-03-15T09:17:41.777Z,92.59
2023-03-15T09:22:50.107Z,91.06
2023-03-15T09:27:54.053Z,90.86
2023-03-15T09:32:57.515Z,90.33
2023-03-15T09:38:01.200Z,89.88
2023-03-15T09:43:07.485Z,88.90
2023-03-15T09:48:29.612Z,87.87
2023-03-15T09:53:52.271Z,87.56
2023-03-15T09:58:59.975Z,88.11
2023-03-15T10:04:14.455Z,87.08
2023-03-15T10:09:19.717Z,87.53
2023-03-15T10:14:25.823Z,87.07
2023-03-15T10:19:47.642Z,85.72
2023-03-15T10:25:05.385Z,86.38
2023-03-15T10:30:23.032Z,85.71
2023-03-15T10:35:26.850Z,86.40
2023-03-15T10:40:46.766Z,87.08
2023-03-15T10:46:03.881Z,85.53
2023-03-15T10:51:21.364Z,84.04
2023-03-15T10:56:27.544Z,83.92
2023-03-15T11:01:37.810Z,83.01
2023-03-15T11:06:59.522Z,82.94
2023-03-15T11:12:06.747Z,83.01
2023-03-15T11:17:23.187Z,81.24
2023-03-15T11:22:26.959Z,81.84
2023-03-15T11:27:32.029Z,82.93
2023-03-15T11:32:35.582Z,82.28
2023-03-15T11:37:51.432Z,83.71
2023-03-15T11:43:02.423Z,82.77
2023-03-15T11:48:14.553Z,80.72
2023-03-15T11:53:18.674Z,80.66
2023-03-15T11:58:42.775Z,80.79
2023-03-15T12:03:46.193Z,81.03
2023-03-15T12:08:52.376Z,80.74
2023-03-15T12:13:58.644Z,81.24
2023-03-15T12:19:10.758Z,81.75
2023-03-15T12:24:23.082Z,81.78
2023-03-15T12:29:29.449Z,81.91
2023-03-15T12:34:50.180Z,81.55
2023-03-15T12:40:19.401Z,81.08
2023-03-15T12:45:40.188Z,81.30
2023-03-15T12:50:47.315Z,82.76
2023-03-15T12:55:59.506Z,82.62
2023-03-15T13:01:16.427Z,82.04
2023-03-15T13:06:45.583Z,81.90
2023-03-15T13:11:51.775Z,82.33
2023-03-15T13:17:17.605Z,84.82
2023-03-15T13:22:27.059Z,86.29
2023-03-15T13:27:34.873Z,85.92
2023-03-15T13:32:38.527Z,85.50
2023-03-15T13:37:45.403Z,84.87
2023-03-15T13:42:49.002Z,84.88
2023-03-15T13:47:52.324Z,85.22
2023-03-15T13:52:56.858Z,85.27
2023-03-15T13:58:01.087Z,84.82
2023-03-15T14:03:13.545Z,85.77
2023-03-15T14:08:33.618Z,86.49
2023-03-15T14:13:52.916Z,86.25
2023-03-15T14:18:56.213Z,86.66
2023-03-15T14:24:07.063Z,87.03
2023-03-15T14:29:21.792Z,87.03
2023-03-15T14:34:43.831Z,86.81
2023-03-15T14:39:47.245Z,87.43
2023-03-15T14:44:50.657Z,87.49
2023-03-15T14:49:54.272Z,86.98
2023-03-15T14:54:59.224Z,86.57
2023-03-15T15:00:02.428Z,86.03
2023-03-15T15:05:17.216Z,86.87
2023-03-15T15:10:25.440Z,87.57
2023-03-15T15:15:28.958Z,87.12
2023-03-15T15:20:32.772Z,86.41
2023-03-15T15:25:36.302Z,86.09
2023-03-15T15:30:39.808Z,86.54
2023-03-15T15:35:43.267Z,85.92
2023-03-15T15:40:46.838Z,84.10
2023-03-15T15:45:50.307Z,84.54
2023-03-15T15:50:53.606Z,84.49
2023-03-15T15:55:57.413Z,83.97
2023-03-15T16:01:00.754Z,83.61
2023-03-15T16:06:04.477Z,82.62
2023-03-15T16:11:08.540Z,82.69
2023-03-15T16:16:16.721Z,81.19
2023-03-15T16:21:54.650Z,81.71
2023-03-15T16:27:01.621Z,81.59
2023-03-15T16:32:17.718Z,81.82
2023-03-15T16:37:29.194Z,82.67
2023-03-15T16:42:32.713Z,83.72
2023-03-15T16:47:36.120Z,84.11
2023-03-15T16:52:42.300Z,85.18
2023-03-15T16:57:45.586Z,85.33
2023-03-15T17:02:52.307Z,85.52
2023-03-15T17:07:56.441Z,85.44
2023-03-15T17:13:03.443Z,85.60
2023-03-15T17:18:18.124Z,86.01
2023-03-15T17:23:23.888Z,86.35
2023-03-15T17:28:30.070Z,86.33
2023-03-15T17:33:33.571Z,86.68
2023-03-15T17:38:41.181Z,86.77
2023-03-15T17:43:48.549Z,87.06
2023-03-15T17:48:56.216Z,87.12
2023-03-15T17:54:00.363Z,87.31
2023-03-15T17:59:03.656Z,87.28
2023-03-15T18:04:12.070Z,87.44
2023-03-15T18:09:16.323Z,87.49
2023-03-15T18:14:20.342Z,87.65
2023-03-15T18:19:24.055Z,87.75
2023-03-15T18:24:27.570Z,87.99
2023-03-15T18:29:32.005Z,88.35
2023-03-15T18:34:35.521Z,88.45
2023-03-15T18:39:39.137Z,88.50
2023-03-15T18:44:44.216Z,88.51
2023-03-15T18:49:51.053Z,88.51
2023-03-15T18:54:54.704Z,88.53
2023-03-15T18:59:58.619Z,88.72
2023-03-15T19:05:02.138Z,88.89
2023-03-15T19:10:08.323Z,88.82
2023-03-15T19:15:15.407Z,89.18
2023-03-15T19:20:23.010Z,89.17
2023-03-15T19:25:26.365Z,89.09
2023-03-15T19:30:29.955Z,89.27
2023-03-15T19:35:33.750Z,89.24
2023-03-15T19:40:37.811Z,88.96
2023-03-15T19:45:41.746Z,88.90
2023-03-15T19:50:45.153Z,88.98
2023-03-15T19:55:48.676Z,89.07
2023-03-15T20:00:57.521Z,89.00
2023-03-15T20:06:08.731Z,89.15
2023-03-15T20:11:20.212Z,89.05
2023-03-15T20:16:23.749Z,89.00
2023-03-15T20:21:27.438Z,89.12
2023-03-15T20:26:31.575Z,89.16
2023-03-15T20:31:34.898Z,89.09
2023-03-15T20:36:38.328Z,89.22
2023-03-15T20:41:41.923Z,89.13
2023-03-15T20:46:45.819Z,89.20
2023-03-15T20:51:49.349Z,89.05
2023-03-15T20:56:52.966Z,89.07
2023-03-15T21:01:56.836Z,89.03
2023-03-15T21:07:04.508Z,88.88
2023-03-15T21:12:08.529Z,88.67
2023-03-15T21:17:14.531Z,88.45
2023-03-15T21:22:18.571Z,88.48
2023-03-15T21:27:21.851Z,88.63
2023-03-15T21:32:25.633Z,88.55
2023-03-15T21:37:29.063Z,88.74
2023-03-15T21:42:33.808Z,88.99
2023-03-15T21:47:37.238Z,89.12
2023-03-15T21:52:40.637Z,89.13
2023-03-15T21:57:44.870Z,88.95
2023-03-15T22:02:48.386Z,89.29
2023-03-15T22:07:51.798Z,89.09
2023-03-15T22:12:55.718Z,88.97
2023-03-15T22:17:59.033Z,89.03
2023-03-15T22:23:04.701Z,88.84
2023-03-15T22:28:08.419Z,88.94
2023-03-15T22:33:12.252Z,88.90
2023-03-15T22:38:16.066Z,88.88
2023-03-15T22:43:20.200Z,88.47
2023-03-15T22:48:23.613Z,88.59
2023-03-15T22:53:28.561Z,88.54
2023-03-15T22:58:32.491Z,88.73
2023-03-15T23:03:36.208Z,88.52
2023-03-15T23:08:39.521Z,88.40
2023-03-15T23:13:43.036Z,88.69
2023-03-15T23:18:46.452Z,88.37
2023-03-15T23:23:49.968Z,88.36
2023-03-15T23:28:54.950Z,88.08
2023-03-15T23:33:58.329Z,88.03
2023-03-15T23:39:01.854Z,88.04
2023-03-15T23:44:05.364Z,88.30
2023-03-15T23:49:09.082Z,88.20
2023-03-15T23:54:12.497Z,88.21
2023-03-15T23:59:16.009Z,87.96
